Time;durP1;ratioP1;P1;durP2;ratioP2;P2;SDS_P1;SDS_P2;PMS_P1;PMS_P2;Temp;Humidity;BMP_temperature;BMP_pressure;BME280_temperature;BME280_humidity;BME280_pressure;Samples;Min_cycle;Max_cycle;Signal;HPM_P1;HPM_P2
2022/06/29 00:00:15;;;;;;;20.58;14.35;;;;;;;;;;5046259;28;20527;-77
2022/06/29 00:02:43;;;;;;;23.27;14.90;;;;;;;;;;5046332;28;20397;-77
2022/06/29 00:05:12;;;;;;;17.35;11.93;;;;;;;;;;5047567;28;20025;-77
2022/06/29 00:07:38;;;;;;;22.75;14.00;;;;;;;;;;5031365;28;20033;-77
2022/06/29 00:10:04;;;;;;;22.23;12.88;;;;;;;;;;5028763;28;20473;-76
2022/06/29 00:12:30;;;;;;;21.88;13.85;;;;;;;;;;5027559;28;20075;-76
2022/06/29 00:14:55;;;;;;;21.77;13.02;;;;;;;;;;5029719;28;20033;-76
2022/06/29 00:17:22;;;;;;;23.35;13.52;;;;;;;;;;5029306;28;20032;-76
2022/06/29 00:19:48;;;;;;;21.48;13.73;;;;;;;;;;5028492;28;20030;-76
2022/06/29 00:22:14;;;;;;;19.58;13.35;;;;;;;;;;5034122;28;20156;-75
2022/06/29 00:24:39;;;;;;;19.02;12.18;;;;;;;;;;5048570;28;20025;-76
2022/06/29 00:27:05;;;;;;;25.65;13.20;;;;;;;;;;5048322;28;20063;-76
2022/06/29 00:29:31;;;;;;;19.30;12.90;;;;;;;;;;5048142;28;20064;-76
2022/06/29 00:31:57;;;;;;;20.30;13.48;;;;;;;;;;5049629;28;20053;-76
2022/06/29 00:34:22;;;;;;;18.40;13.25;;;;;;;;;;5047909;28;20063;-76
2022/06/29 00:36:48;;;;;;;20.80;12.57;;;;;;;;;;5049365;28;20481;-77
2022/06/29 00:39:14;;;;;;;20.65;13.23;;;;;;;;;;5049349;28;20036;-77
2022/06/29 00:41:42;;;;;;;20.67;12.82;;;;;;;;;;5048010;28;20029;-75
2022/06/29 00:44:09;;;;;;;20.73;13.48;;;;;;;;;;5047865;28;20029;-76
2022/06/29 00:46:55;;;;;;;19.80;13.63;;;;;;;;;;5049324;28;20040;-76
2022/06/29 00:49:22;;;;;;;22.27;15.18;;;;;;;;;;5048750;28;20040;-76
2022/06/29 00:52:06;;;;;;;16.90;12.32;;;;;;;;;;5047966;28;20029;-76
2022/06/29 00:54:42;;;;;;;22.75;13.75;;;;;;;;;;5047591;28;20025;-76
2022/06/29 00:57:13;;;;;;;23.15;13.98;;;;;;;;;;5049078;28;20469;-76
2022/06/29 00:59:47;;;;;;;23.33;14.43;;;;;;;;;;5049623;28;20029;-76
2022/06/29 01:02:16;;;;;;;22.45;13.73;;;;;;;;;;5051696;28;20025;-76
2022/06/29 01:04:43;;;;;;;20.20;13.40;;;;;;;;;;5051607;28;20501;-76
2022/06/29 01:07:12;;;;;;;21.90;14.02;;;;;;;;;;5053179;28;20465;-77
2022/06/29 01:09:38;;;;;;;20.73;13.70;;;;;;;;;;5051402;28;20380;-77
2022/06/29 01:12:04;;;;;;;22.55;13.73;;;;;;;;;;5053037;28;20016;-76
2022/06/29 01:14:30;;;;;;;22.52;13.32;;;;;;;;;;5052804;28;20610;-77
2022/06/29 01:16:56;;;;;;;19.65;13.38;;;;;;;;;;5068183;28;20060;-77
2022/06/29 01:19:22;;;;;;;17.60;12.80;;;;;;;;;;5051489;28;20112;-75
2022/06/29 01:21:51;;;;;;;20.85;13.63;;;;;;;;;;5050429;28;20053;-75
2022/06/29 01:24:21;;;;;;;18.00;13.10;;;;;;;;;;5032686;28;20102;-77
2022/06/29 01:26:46;;;;;;;21.65;13.55;;;;;;;;;;5032927;28;20335;-76
2022/06/29 01:29:12;;;;;;;21.35;13.15;;;;;;;;;;5031481;28;20040;-76
2022/06/29 01:31:37;;;;;;;22.88;14.45;;;;;;;;;;5031338;28;20060;-76
2022/06/29 01:34:03;;;;;;;22.58;13.93;;;;;;;;;;5032707;28;20021;-77
2022/06/29 01:36:28;;;;;;;24.08;14.45;;;;;;;;;;5031177;28;20048;-77
2022/06/29 01:38:54;;;;;;;27.85;15.57;;;;;;;;;;5033091;28;20033;-77
2022/06/29 01:41:19;;;;;;;23.38;14.85;;;;;;;;;;5032508;28;20029;-76
2022/06/29 01:43:45;;;;;;;23.60;13.75;;;;;;;;;;5032668;28;20385;-76
2022/06/29 01:46:11;;;;;;;21.77;14.10;;;;;;;;;;5031315;28;20519;-76
2022/06/29 01:48:36;;;;;;;19.52;12.80;;;;;;;;;;5031032;28;20037;-77
2022/06/29 01:51:02;;;;;;;20.80;13.63;;;;;;;;;;5032251;28;20426;-76
2022/06/29 01:53:27;;;;;;;22.80;13.95;;;;;;;;;;5031127;28;20578;-77
2022/06/29 01:55:54;;;;;;;24.38;16.33;;;;;;;;;;5031469;28;20033;-75
2022/06/29 01:58:20;;;;;;;23.70;15.68;;;;;;;;;;5032715;28;20021;-76
2022/06/29 02:00:46;;;;;;;27.25;15.55;;;;;;;;;;5034400;28;20099;-76
2022/06/29 02:03:12;;;;;;;23.38;15.70;;;;;;;;;;5037719;28;20097;-76
2022/06/29 02:05:38;;;;;;;25.27;15.52;;;;;;;;;;5036757;28;20022;-76
2022/06/29 02:08:04;;;;;;;24.17;15.90;;;;;;;;;;5037316;28;20017;-76
2022/06/29 02:10:30;;;;;;;25.30;15.82;;;;;;;;;;5037094;28;20018;-76
2022/06/29 02:12:55;;;;;;;26.70;17.08;;;;;;;;;;5035798;28;20097;-76
2022/06/29 02:15:23;;;;;;;24.05;15.35;;;;;;;;;;5032463;28;20127;-76
2022/06/29 02:17:49;;;;;;;24.88;15.35;;;;;;;;;;5031225;28;20494;-76
2022/06/29 02:20:15;;;;;;;27.50;15.75;;;;;;;;;;5030732;28;20119;-76
2022/06/29 02:22:41;;;;;;;25.58;15.07;;;;;;;;;;5038434;28;20478;-76
2022/06/29 02:25:07;;;;;;;22.88;14.98;;;;;;;;;;5052332;28;20025;-77
2022/06/29 02:27:33;;;;;;;27.90;16.10;;;;;;;;;;5051720;28;20477;-77
2022/06/29 02:29:58;;;;;;;22.38;15.55;;;;;;;;;;5051938;28;20098;-77
2022/06/29 02:35:08;;;;;;;26.13;16.30;;;;;;;;;;5052034;28;20444;-76
2022/06/29 02:37:33;;;;;;;25.67;15.82;;;;;;;;;;5051381;28;20484;-76
2022/06/29 02:39:59;;;;;;;24.98;15.30;;;;;;;;;;5049963;28;20029;-76
2022/06/29 02:42:24;;;;;;;26.48;16.90;;;;;;;;;;5049802;28;20125;-76
2022/06/29 02:44:50;;;;;;;26.45;17.60;;;;;;;;;;5051264;28;20029;-76
2022/06/29 02:47:17;;;;;;;27.60;17.27;;;;;;;;;;5050081;28;20033;-76
2022/06/29 02:49:43;;;;;;;30.75;18.17;;;;;;;;;;5049691;28;20108;-76
2022/06/29 02:52:09;;;;;;;26.05;17.13;;;;;;;;;;5049884;28;20124;-76
2022/06/29 02:54:35;;;;;;;37.25;19.63;;;;;;;;;;5049771;28;20481;-76
2022/06/29 02:57:00;;;;;;;36.75;20.25;;;;;;;;;;5049880;28;20025;-76
2022/06/29 02:59:26;;;;;;;36.28;21.55;;;;;;;;;;5050387;28;20055;-75
2022/06/29 03:01:51;;;;;;;34.20;21.83;;;;;;;;;;5051190;28;20024;-77
2022/06/29 03:04:17;;;;;;;39.63;22.83;;;;;;;;;;5049951;28;20032;-77
2022/06/29 03:06:42;;;;;;;38.63;22.05;;;;;;;;;;5049809;28;20400;-77
2022/06/29 03:09:08;;;;;;;42.10;22.60;;;;;;;;;;5051188;28;20063;-76
2022/06/29 03:11:34;;;;;;;40.38;22.67;;;;;;;;;;5049564;28;20048;-77
2022/06/29 03:13:59;;;;;;;40.42;23.02;;;;;;;;;;5049485;28;20039;-76
2022/06/29 03:16:25;;;;;;;44.25;23.60;;;;;;;;;;5065502;28;20485;-77
2022/06/29 03:18:51;;;;;;;44.75;23.85;;;;;;;;;;5049363;28;20029;-77
2022/06/29 03:21:18;;;;;;;41.80;23.17;;;;;;;;;;5049204;28;20048;-76
2022/06/29 03:23:44;;;;;;;46.13;24.17;;;;;;;;;;5050597;28;20345;-77
2022/06/29 03:26:12;;;;;;;50.42;26.33;;;;;;;;;;5049743;28;20505;-77
2022/06/29 03:28:37;;;;;;;54.20;25.73;;;;;;;;;;5049316;28;20083;-77
2022/06/29 03:31:04;;;;;;;44.25;23.42;;;;;;;;;;5050440;28;20036;-76
2022/06/29 03:33:29;;;;;;;45.83;24.85;;;;;;;;;;5048979;28;20040;-76
2022/06/29 03:35:55;;;;;;;49.40;25.27;;;;;;;;;;5049124;28;20045;-77
2022/06/29 03:38:20;;;;;;;49.25;24.13;;;;;;;;;;5048993;28;20043;-77
2022/06/29 03:40:46;;;;;;;51.03;26.05;;;;;;;;;;5048815;28;20060;-77
2022/06/29 03:43:12;;;;;;;47.67;25.77;;;;;;;;;;5049302;28;20043;-78
2022/06/29 03:45:38;;;;;;;51.00;26.13;;;;;;;;;;5048887;28;20033;-78
2022/06/29 03:48:04;;;;;;;47.25;27.15;;;;;;;;;;5050685;28;20082;-77
2022/06/29 03:50:29;;;;;;;44.40;23.33;;;;;;;;;;5049255;28;20029;-77
2022/06/29 03:52:55;;;;;;;43.83;23.48;;;;;;;;;;5048946;28;20032;-77
2022/06/29 03:55:20;;;;;;;37.85;21.42;;;;;;;;;;5048381;28;20471;-76
2022/06/29 03:57:46;;;;;;;35.00;20.23;;;;;;;;;;5049687;28;20570;-76
2022/06/29 04:00:12;;;;;;;35.75;21.17;;;;;;;;;;5050001;28;20033;-76
2022/06/29 04:02:38;;;;;;;44.65;22.52;;;;;;;;;;5031851;28;20036;-77
2022/06/29 04:05:04;;;;;;;39.03;21.08;;;;;;;;;;5048503;28;20028;-77
2022/06/29 04:07:34;;;;;;;47.28;24.05;;;;;;;;;;5048069;28;20120;-77
2022/06/29 04:10:00;;;;;;;40.30;22.00;;;;;;;;;;5048586;28;20401;-77
2022/06/29 04:12:28;;;;;;;42.08;23.23;;;;;;;;;;5048091;28;20083;-76
2022/06/29 04:14:53;;;;;;;41.78;23.05;;;;;;;;;;5049797;28;20028;-77
2022/06/29 04:17:19;;;;;;;44.15;23.52;;;;;;;;;;5047999;28;20029;-76
2022/06/29 04:19:44;;;;;;;44.40;23.77;;;;;;;;;;5049522;28;20037;-76
2022/06/29 04:22:10;;;;;;;44.65;23.23;;;;;;;;;;5045319;28;20047;-77
2022/06/29 04:24:35;;;;;;;40.20;22.05;;;;;;;;;;5029696;28;20043;-77
2022/06/29 04:27:03;;;;;;;36.08;20.08;;;;;;;;;;5028260;28;20021;-77
2022/06/29 04:29:28;;;;;;;33.83;19.73;;;;;;;;;;5028228;28;20029;-77
2022/06/29 04:31:54;;;;;;;32.67;18.92;;;;;;;;;;5029878;28;20021;-77
2022/06/29 04:34:19;;;;;;;25.50;15.95;;;;;;;;;;5029101;28;20063;-76
2022/06/29 04:36:45;;;;;;;29.85;15.68;;;;;;;;;;5028099;28;20029;-76
2022/06/29 04:39:10;;;;;;;23.08;13.18;;;;;;;;;;5028248;28;20318;-76
2022/06/29 04:41:36;;;;;;;23.17;11.98;;;;;;;;;;5028255;28;20109;-77
2022/06/29 04:44:01;;;;;;;18.00;10.40;;;;;;;;;;5029992;28;20108;-76
2022/06/29 04:46:28;;;;;;;21.27;11.98;;;;;;;;;;5029523;28;20022;-77
2022/06/29 04:48:59;;;;;;;25.73;13.48;;;;;;;;;;5029606;28;20486;-76
2022/06/29 04:51:26;;;;;;;23.15;13.00;;;;;;;;;;5029807;28;20064;-76
2022/06/29 04:53:56;;;;;;;24.75;13.27;;;;;;;;;;5028697;28;20485;-77
2022/06/29 04:56:23;;;;;;;18.77;10.68;;;;;;;;;;5044733;28;20025;-77
2022/06/29 04:58:50;;;;;;;21.88;11.52;;;;;;;;;;5028132;28;20026;-76
2022/06/29 05:01:21;;;;;;;18.65;9.35;;;;;;;;;;5029910;28;20128;-76
2022/06/29 05:03:47;;;;;;;19.25;10.98;;;;;;;;;;5027946;28;20033;-77
2022/06/29 05:06:13;;;;;;;16.83;9.77;;;;;;;;;;5029961;28;20587;-76
2022/06/29 05:08:38;;;;;;;14.13;8.07;;;;;;;;;;5025490;28;20083;-77
2022/06/29 05:11:04;;;;;;;14.90;7.53;;;;;;;;;;5015742;28;20075;-76
2022/06/29 05:13:30;;;;;;;14.85;7.85;;;;;;;;;;5029565;28;20474;-77
2022/06/29 05:15:55;;;;;;;17.48;7.70;;;;;;;;;;5030045;28;20025;-76
2022/06/29 05:18:21;;;;;;;21.65;8.30;;;;;;;;;;5017562;28;20041;-77
2022/06/29 05:20:47;;;;;;;16.33;8.75;;;;;;;;;;5011157;28;20539;-76
2022/06/29 05:23:12;;;;;;;14.13;8.40;;;;;;;;;;5027303;28;20025;-78
2022/06/29 05:25:39;;;;;;;18.77;9.90;;;;;;;;;;5044088;28;20039;-76
2022/06/29 05:28:06;;;;;;;21.15;10.20;;;;;;;;;;5027452;28;20375;-77
2022/06/29 05:30:31;;;;;;;17.35;10.38;;;;;;;;;;5018930;28;20051;-77
2022/06/29 05:32:57;;;;;;;14.30;8.48;;;;;;;;;;5021738;28;20030;-76
2022/06/29 05:35:22;;;;;;;16.05;9.32;;;;;;;;;;5008338;28;20404;-77
2022/06/29 05:37:48;;;;;;;17.83;9.07;;;;;;;;;;5025040;28;20112;-76
2022/06/29 05:40:13;;;;;;;18.73;9.52;;;;;;;;;;5011665;28;20030;-77
2022/06/29 05:42:39;;;;;;;15.75;8.80;;;;;;;;;;5025054;28;20038;-77
2022/06/29 05:45:05;;;;;;;14.65;7.60;;;;;;;;;;5024750;28;20037;-77
2022/06/29 05:47:30;;;;;;;19.23;9.27;;;;;;;;;;5011172;28;20052;-77
2022/06/29 05:49:57;;;;;;;12.43;7.28;;;;;;;;;;5027531;28;20482;-77
2022/06/29 05:52:24;;;;;;;13.35;8.60;;;;;;;;;;5013037;28;20025;-77
2022/06/29 05:54:50;;;;;;;12.88;7.38;;;;;;;;;;5027763;28;20465;-77
2022/06/29 05:57:15;;;;;;;14.88;8.45;;;;;;;;;;5011048;28;20034;-76
2022/06/29 05:59:41;;;;;;;15.13;8.23;;;;;;;;;;5011313;28;20030;-77
2022/06/29 06:02:06;;;;;;;14.73;8.73;;;;;;;;;;5012428;28;20466;-77
2022/06/29 06:04:32;;;;;;;12.93;6.40;;;;;;;;;;5027710;28;20033;-77
2022/06/29 06:06:57;;;;;;;11.95;6.13;;;;;;;;;;5028014;28;20749;-77
2022/06/29 06:09:26;;;;;;;9.73;6.25;;;;;;;;;;5027372;28;20028;-77
2022/06/29 06:11:55;;;;;;;10.52;5.22;;;;;;;;;;5010499;28;20243;-77
2022/06/29 06:14:21;;;;;;;13.88;6.85;;;;;;;;;;5027528;28;20033;-79
2022/06/29 06:16:46;;;;;;;15.48;7.38;;;;;;;;;;5013453;28;20484;-77
2022/06/29 06:19:12;;;;;;;12.30;6.25;;;;;;;;;;5027584;28;20037;-77
2022/06/29 06:21:37;;;;;;;12.63;8.18;;;;;;;;;;5034863;28;20131;-76
2022/06/29 06:24:04;;;;;;;14.02;6.70;;;;;;;;;;5044564;28;20033;-78
2022/06/29 06:26:31;;;;;;;13.13;7.18;;;;;;;;;;5021648;28;20022;-77
2022/06/29 06:28:57;;;;;;;18.35;9.18;;;;;;;;;;5024464;28;20022;-77
2022/06/29 06:31:26;;;;;;;12.13;7.60;;;;;;;;;;5026158;28;20044;-77
2022/06/29 06:33:52;;;;;;;11.88;7.68;;;;;;;;;;5030993;28;20040;-77
2022/06/29 06:36:20;;;;;;;13.57;8.18;;;;;;;;;;5007335;28;20029;-77
2022/06/29 06:38:45;;;;;;;13.77;7.50;;;;;;;;;;5028813;28;20036;-78
2022/06/29 06:41:23;;;;;;;14.15;7.60;;;;;;;;;;5030613;28;20111;-79
2022/06/29 06:43:54;;;;;;;11.55;6.65;;;;;;;;;;5030893;28;20032;-78
2022/06/29 06:46:21;;;;;;;13.40;6.93;;;;;;;;;;5031779;28;20508;-79
2022/06/29 06:48:49;;;;;;;12.10;6.68;;;;;;;;;;5026833;28;20474;-78
2022/06/29 06:51:15;;;;;;;12.07;6.85;;;;;;;;;;5030816;28;20469;-79
2022/06/29 06:53:41;;;;;;;15.65;7.03;;;;;;;;;;5046011;28;20099;-78
2022/06/29 06:56:28;;;;;;;11.07;7.05;;;;;;;;;;5029245;28;20113;-77
2022/06/29 06:58:54;;;;;;;12.18;7.38;;;;;;;;;;5027917;28;20025;-77
2022/06/29 07:01:19;;;;;;;12.57;7.07;;;;;;;;;;5029068;28;20036;-77
2022/06/29 07:03:45;;;;;;;11.95;7.68;;;;;;;;;;5029607;28;20037;-76
2022/06/29 07:06:11;;;;;;;18.27;7.50;;;;;;;;;;5027334;28;20040;-78
2022/06/29 07:08:38;;;;;;;15.50;8.48;;;;;;;;;;5027020;28;20489;-77
2022/06/29 07:11:05;;;;;;;18.40;8.63;;;;;;;;;;5045904;28;20083;-77
2022/06/29 07:13:34;;;;;;;14.85;7.95;;;;;;;;;;5029344;28;20379;-79
2022/06/29 07:16:04;;;;;;;18.80;7.75;;;;;;;;;;5045880;28;20093;-78
2022/06/29 07:18:30;;;;;;;14.93;10.02;;;;;;;;;;5029080;28;20045;-78
2022/06/29 07:20:57;;;;;;;15.27;9.23;;;;;;;;;;5027803;28;20076;-77
2022/06/29 07:23:22;;;;;;;22.65;11.27;;;;;;;;;;5032308;28;20040;-77
2022/06/29 07:25:48;;;;;;;25.73;11.02;;;;;;;;;;5017294;28;20041;-78
2022/06/29 07:28:14;;;;;;;17.00;10.32;;;;;;;;;;5021419;28;20535;-77
2022/06/29 07:30:39;;;;;;;18.88;11.27;;;;;;;;;;5027411;28;20029;-78
2022/06/29 07:33:05;;;;;;;22.13;12.80;;;;;;;;;;5043914;28;20025;-76
2022/06/29 07:35:30;;;;;;;24.13;12.57;;;;;;;;;;5044418;28;20039;-77
2022/06/29 07:37:57;;;;;;;20.70;12.40;;;;;;;;;;5044841;28;20143;-77
2022/06/29 07:40:23;;;;;;;20.38;13.13;;;;;;;;;;5032537;28;20017;-77
2022/06/29 07:42:49;;;;;;;28.42;13.90;;;;;;;;;;5045118;28;20585;-77
2022/06/29 07:45:15;;;;;;;29.98;13.93;;;;;;;;;;5043151;28;20086;-78
2022/06/29 07:47:41;;;;;;;24.00;15.10;;;;;;;;;;5029385;28;20175;-78
2022/06/29 07:50:08;;;;;;;33.55;16.52;;;;;;;;;;5035518;28;20112;-77
2022/06/29 07:52:34;;;;;;;25.13;15.02;;;;;;;;;;5028011;28;20033;-78
2022/06/29 07:55:01;;;;;;;23.02;15.35;;;;;;;;;;5044887;28;20094;-79
2022/06/29 07:57:27;;;;;;;27.08;15.60;;;;;;;;;;5029539;28;20037;-79
2022/06/29 07:59:56;;;;;;;28.58;15.70;;;;;;;;;;5024534;28;20029;-77
2022/06/29 08:02:21;;;;;;;30.02;17.00;;;;;;;;;;5026443;28;20040;-78
2022/06/29 08:04:47;;;;;;;27.38;16.00;;;;;;;;;;5043498;28;20025;-78
2022/06/29 08:07:12;;;;;;;29.27;20.85;;;;;;;;;;5028131;28;20031;-78
2022/06/29 08:09:38;;;;;;;25.50;17.83;;;;;;;;;;5023852;28;20044;-76
2022/06/29 08:12:04;;;;;;;29.88;18.08;;;;;;;;;;5023857;28;20041;-77
2022/06/29 08:14:30;;;;;;;33.50;19.70;;;;;;;;;;5039935;28;20021;-78
2022/06/29 08:16:55;;;;;;;33.38;20.35;;;;;;;;;;5026376;28;20465;-78
2022/06/29 08:19:21;;;;;;;37.45;21.70;;;;;;;;;;5022319;28;20033;-78
2022/06/29 08:21:47;;;;;;;31.75;20.10;;;;;;;;;;5021421;28;20115;-78
2022/06/29 08:24:13;;;;;;;31.23;19.80;;;;;;;;;;5019835;28;20038;-78
2022/06/29 08:26:39;;;;;;;33.15;20.90;;;;;;;;;;5028033;28;20023;-78
2022/06/29 08:29:04;;;;;;;48.30;30.55;;;;;;;;;;5023538;28;20397;-79
2022/06/29 08:31:30;;;;;;;39.38;22.23;;;;;;;;;;5024557;28;20037;-78
2022/06/29 08:33:56;;;;;;;31.38;21.67;;;;;;;;;;5025268;28;20025;-77
2022/06/29 08:36:22;;;;;;;38.65;22.80;;;;;;;;;;5024990;28;20156;-79
2022/06/29 08:38:48;;;;;;;30.08;21.65;;;;;;;;;;5034004;28;20469;-77
2022/06/29 08:41:14;;;;;;;33.42;21.30;;;;;;;;;;5042879;28;20091;-76
2022/06/29 08:43:41;;;;;;;32.70;23.48;;;;;;;;;;5019398;28;20037;-78
2022/06/29 08:46:07;;;;;;;30.95;21.52;;;;;;;;;;5024844;28;20119;-77
2022/06/29 08:48:32;;;;;;;33.00;21.60;;;;;;;;;;5024956;28;20735;-77
2022/06/29 08:50:58;;;;;;;33.80;22.35;;;;;;;;;;5040158;28;20063;-79
2022/06/29 08:53:24;;;;;;;35.80;22.63;;;;;;;;;;5040821;28;20481;-78
2022/06/29 08:55:52;;;;;;;44.97;23.33;;;;;;;;;;5041640;28;20034;-76
2022/06/29 08:58:22;;;;;;;31.00;20.13;;;;;;;;;;5023621;28;20127;-78
2022/06/29 09:00:51;;;;;;;35.88;20.77;;;;;;;;;;5005377;28;20096;-78
2022/06/29 09:03:19;;;;;;;33.78;21.38;;;;;;;;;;5025431;28;20044;-78
2022/06/29 09:05:50;;;;;;;29.83;20.55;;;;;;;;;;5039659;28;20029;-78
2022/06/29 09:08:19;;;;;;;31.52;20.25;;;;;;;;;;5026092;28;20030;-78
2022/06/29 09:10:45;;;;;;;32.13;21.17;;;;;;;;;;5028408;28;20488;-78
2022/06/29 09:13:11;;;;;;;37.13;20.77;;;;;;;;;;5019962;28;20164;-80
2022/06/29 09:15:38;;;;;;;30.40;20.48;;;;;;;;;;5036806;28;20304;-78
2022/06/29 09:18:31;;;;;;;36.15;20.80;;;;;;;;;;5026783;28;20155;-78
2022/06/29 09:21:02;;;;;;;36.08;22.13;;;;;;;;;;5038381;28;20037;-79
2022/06/29 09:23:28;;;;;;;33.45;21.85;;;;;;;;;;5045187;28;20052;-78
2022/06/29 09:25:54;;;;;;;48.88;22.95;;;;;;;;;;5014124;28;20339;-79
2022/06/29 09:28:25;;;;;;;31.45;20.98;;;;;;;;;;5041436;28;20026;-78
2022/06/29 09:30:54;;;;;;;31.42;20.85;;;;;;;;;;5046279;28;20014;-78
2022/06/29 09:33:29;;;;;;;39.60;20.27;;;;;;;;;;5045489;28;20040;-83
2022/06/29 09:36:14;;;;;;;33.83;22.30;;;;;;;;;;5031679;28;20493;-79
2022/06/29 09:38:40;;;;;;;34.10;22.13;;;;;;;;;;5045692;28;20025;-79
2022/06/29 09:41:15;;;;;;;32.72;21.48;;;;;;;;;;5029971;28;20040;-79
2022/06/29 09:43:45;;;;;;;37.45;23.98;;;;;;;;;;5055376;28;20123;-79
2022/06/29 09:46:14;;;;;;;33.45;22.05;;;;;;;;;;5031786;28;20027;-77
2022/06/29 09:48:42;;;;;;;44.83;29.08;;;;;;;;;;5030943;28;20037;-79
2022/06/29 09:54:10;;;;;;;34.85;22.30;;;;;;;;;;5017538;28;20036;-79
2022/06/29 09:56:41;;;;;;;34.45;22.15;;;;;;;;;;5028529;28;20068;-78
2022/06/29 09:59:08;;;;;;;;;;;;;;;;;;5047747;28;20572;-79
2022/06/29 10:04:20;;;;;;;37.10;23.42;;;;;;;;;;5033043;28;20087;-80
2022/06/29 10:06:46;;;;;;;35.20;23.98;;;;;;;;;;5047092;28;20157;-79
2022/06/29 10:09:11;;;;;;;39.83;26.67;;;;;;;;;;5037060;28;20060;-79
2022/06/29 10:14:43;;;;;;;43.35;26.63;;;;;;;;;;5043258;28;20040;-77
2022/06/29 10:17:35;;;;;;;43.17;27.05;;;;;;;;;;5034718;28;20026;-78
2022/06/29 10:20:13;;;;;;;41.67;27.40;;;;;;;;;;5031517;28;20041;-81
2022/06/29 10:22:40;;;;;;;49.35;27.67;;;;;;;;;;5032054;28;20111;-78
2022/06/29 10:25:09;;;;;;;45.60;27.92;;;;;;;;;;5029868;28;20104;-77
2022/06/29 10:27:35;;;;;;;50.20;30.50;;;;;;;;;;5044528;28;20093;-77
2022/06/29 10:30:24;;;;;;;58.20;31.45;;;;;;;;;;5028604;28;20121;-78
2022/06/29 10:32:50;;;;;;;56.47;32.97;;;;;;;;;;5026197;28;20065;-78
2022/06/29 10:35:19;;;;;;;61.55;35.85;;;;;;;;;;5028776;28;20033;-76
2022/06/29 10:37:50;;;;;;;57.08;34.60;;;;;;;;;;5043757;28;20038;-77
2022/06/29 10:40:16;;;;;;;;;;;;;;;;;;5021197;28;20025;-74
2022/06/29 10:45:46;;;;;;;53.90;34.15;;;;;;;;;;5027981;28;20083;-75
2022/06/29 10:48:13;;;;;;;55.50;34.92;;;;;;;;;;5042360;28;20025;-75
2022/06/29 10:50:42;;;;;;;52.65;32.25;;;;;;;;;;5027612;28;20037;-75
2022/06/29 10:53:13;;;;;;;60.70;36.95;;;;;;;;;;5026092;28;20025;-75
2022/06/29 10:55:48;;;;;;;67.40;37.97;;;;;;;;;;5026190;28;20037;-74
2022/06/29 10:58:14;;;;;;;55.63;34.60;;;;;;;;;;5021659;28;20124;-75
2022/06/29 11:00:42;;;;;;;54.90;32.88;;;;;;;;;;5025523;28;20080;-75
2022/06/29 11:03:26;;;;;;;56.20;34.67;;;;;;;;;;5024520;28;20226;-75
2022/06/29 11:16:56;;;;;;;56.22;33.25;;;;;;;;;;5032246;28;20218;-74
2022/06/29 11:19:28;;;;;;;48.70;30.60;;;;;;;;;;5037589;28;20159;-76
2022/06/29 11:22:10;;;;;;;52.20;33.08;;;;;;;;;;5044552;28;20917;-74
2022/06/29 11:24:57;;;;;;;50.25;31.92;;;;;;;;;;5035475;28;20029;-77
2022/06/29 11:27:38;;;;;;;45.45;29.13;;;;;;;;;;5049344;28;20450;-76
2022/06/29 11:30:05;;;;;;;;;;;;;;;;;;5035073;28;20048;-80
2022/06/29 11:32:38;;;;;;;48.25;30.27;;;;;;;;;;5029545;28;20120;-77
2022/06/29 11:35:05;;;;;;;46.17;28.27;;;;;;;;;;5050307;28;20025;-76
2022/06/29 11:37:31;;;;;;;47.42;30.38;;;;;;;;;;5036536;28;20115;-77
2022/06/29 11:39:57;;;;;;;39.47;27.85;;;;;;;;;;5027573;28;20092;-76
2022/06/29 11:45:14;;;;;;;52.15;29.17;;;;;;;;;;5027239;28;20408;-76
2022/06/29 11:48:08;;;;;;;49.22;30.63;;;;;;;;;;5036478;28;20048;-79
2022/06/29 11:50:41;;;;;;;50.50;30.75;;;;;;;;;;5039473;28;20945;-77
2022/06/29 11:53:07;;;;;;;51.33;29.50;;;;;;;;;;5033026;28;20036;-79
2022/06/29 11:55:44;;;;;;;49.93;29.97;;;;;;;;;;5026533;28;20477;-79
2022/06/29 11:58:14;;;;;;;45.55;30.60;;;;;;;;;;5041309;28;20090;-79
2022/06/29 12:00:43;;;;;;;44.45;28.85;;;;;;;;;;5042873;28;20033;-79
2022/06/29 12:03:21;;;;;;;48.85;33.58;;;;;;;;;;5041276;28;20036;-80
2022/06/29 12:05:58;;;;;;;51.45;29.92;;;;;;;;;;5021076;28;20029;-79
2022/06/29 12:08:24;;;;;;;47.60;29.15;;;;;;;;;;5024780;28;20284;-80
2022/06/29 12:10:50;;;;;;;46.67;29.80;;;;;;;;;;5029973;28;20037;-79
2022/06/29 12:13:16;;;;;;;42.42;27.10;;;;;;;;;;5041183;28;20464;-79
2022/06/29 12:15:41;;;;;;;42.63;29.73;;;;;;;;;;5027210;28;20111;-79
2022/06/29 12:18:14;;;;;;;45.55;28.05;;;;;;;;;;5025625;28;20075;-78
2022/06/29 12:20:39;;;;;;;51.30;33.17;;;;;;;;;;5041639;28;20572;-78
2022/06/29 12:23:05;;;;;;;51.58;35.00;;;;;;;;;;5053441;28;20043;-80
2022/06/29 12:25:31;;;;;;;42.92;27.98;;;;;;;;;;5035874;28;20301;-78
2022/06/29 12:27:57;;;;;;;48.33;28.23;;;;;;;;;;5039499;28;20120;-79
2022/06/29 12:30:23;;;;;;;39.00;27.58;;;;;;;;;;5024035;28;20507;-80
2022/06/29 12:33:04;;;;;;;48.58;26.02;;;;;;;;;;5041367;28;20049;-80
2022/06/29 12:35:30;;;;;;;42.45;27.08;;;;;;;;;;5040127;28;20064;-78
2022/06/29 12:37:59;;;;;;;42.38;26.95;;;;;;;;;;5024034;28;20091;-77
2022/06/29 12:40:29;;;;;;;47.38;27.77;;;;;;;;;;5025249;28;20029;-77
2022/06/29 12:42:56;;;;;;;38.88;25.48;;;;;;;;;;5040339;28;20123;-79
2022/06/29 12:45:24;;;;;;;40.90;25.50;;;;;;;;;;5023052;28;20026;-79
2022/06/29 12:48:11;;;;;;;37.63;23.80;;;;;;;;;;5046906;28;20367;-83
2022/06/29 12:50:40;;;;;;;34.35;23.80;;;;;;;;;;5024486;28;20056;-75
2022/06/29 12:53:06;;;;;;;37.58;24.45;;;;;;;;;;5026871;28;20064;-81
2022/06/29 12:55:38;;;;;;;39.13;25.50;;;;;;;;;;5026518;28;20489;-80
2022/06/29 12:58:04;;;;;;;69.00;38.97;;;;;;;;;;5031440;28;20187;-79
2022/06/29 13:00:29;;;;;;;34.72;22.73;;;;;;;;;;5043632;28;20136;-79
2022/06/29 13:03:17;;;;;;;39.85;23.52;;;;;;;;;;5027459;28;20043;-79
2022/06/29 13:05:43;;;;;;;47.53;24.95;;;;;;;;;;5027713;28;20037;-77
2022/06/29 13:08:13;;;;;;;39.42;24.95;;;;;;;;;;5027705;28;20485;-78
2022/06/29 13:10:39;;;;;;;42.60;25.00;;;;;;;;;;5028941;28;20204;-79
2022/06/29 13:13:05;;;;;;;34.10;23.80;;;;;;;;;;5029337;28;20370;-79
2022/06/29 13:15:31;;;;;;;32.33;22.65;;;;;;;;;;5030081;28;20625;-77
2022/06/29 13:18:31;;;;;;;32.47;21.90;;;;;;;;;;5043826;28;20025;-75
2022/06/29 13:20:56;;;;;;;34.83;22.10;;;;;;;;;;5026282;28;20037;-80
2022/06/29 13:23:22;;;;;;;28.98;19.27;;;;;;;;;;5026255;28;20033;-79
2022/06/29 13:25:47;;;;;;;28.25;19.27;;;;;;;;;;5026737;28;20029;-77
2022/06/29 13:28:14;;;;;;;25.02;17.38;;;;;;;;;;5044780;28;20041;-77
2022/06/29 13:30:39;;;;;;;28.55;18.33;;;;;;;;;;5030012;28;20037;-78
2022/06/29 13:33:08;;;;;;;34.75;20.00;;;;;;;;;;5026997;28;20104;-80
2022/06/29 13:35:34;;;;;;;28.95;20.15;;;;;;;;;;5026146;28;20029;-75
2022/06/29 13:38:00;;;;;;;30.25;18.50;;;;;;;;;;5028791;28;20306;-77
2022/06/29 13:40:26;;;;;;;25.27;17.73;;;;;;;;;;5044736;28;20377;-79
2022/06/29 13:42:51;;;;;;;28.92;18.23;;;;;;;;;;5029071;28;20306;-78
2022/06/29 13:45:17;;;;;;;28.27;16.90;;;;;;;;;;5024802;28;20217;-76
2022/06/29 13:47:44;;;;;;;23.25;17.02;;;;;;;;;;5030681;28;20044;-81
2022/06/29 13:50:09;;;;;;;22.13;16.80;;;;;;;;;;5044643;28;20033;-81
2022/06/29 13:52:35;;;;;;;31.08;18.08;;;;;;;;;;5030888;28;20018;-79
2022/06/29 13:55:01;;;;;;;23.77;18.27;;;;;;;;;;5030000;28;20029;-78
2022/06/29 13:57:27;;;;;;;29.50;18.85;;;;;;;;;;5028177;28;20044;-79
2022/06/29 13:59:52;;;;;;;26.13;17.42;;;;;;;;;;5018447;28;20072;-78
2022/06/29 14:02:18;;;;;;;27.00;18.05;;;;;;;;;;5027882;28;20018;-78
2022/06/29 14:04:44;;;;;;;34.45;18.35;;;;;;;;;;5023429;28;20030;-77
2022/06/29 14:07:10;;;;;;;24.98;16.38;;;;;;;;;;5025583;28;20032;-79
2022/06/29 14:09:36;;;;;;;20.40;16.23;;;;;;;;;;5027404;28;20033;-77
2022/06/29 14:12:02;;;;;;;35.58;20.60;;;;;;;;;;5026872;28;20116;-81
2022/06/29 14:14:28;;;;;;;30.10;18.10;;;;;;;;;;5042249;28;20029;-78
2022/06/29 14:16:53;;;;;;;40.42;23.08;;;;;;;;;;5023858;28;20053;-80
2022/06/29 14:19:19;;;;;;;27.95;18.60;;;;;;;;;;5024909;28;20021;-77
2022/06/29 14:21:44;;;;;;;31.17;18.13;;;;;;;;;;5023072;28;20539;-79
2022/06/29 14:24:10;;;;;;;36.45;19.88;;;;;;;;;;5026606;28;20406;-77
2022/06/29 14:26:35;;;;;;;26.02;18.45;;;;;;;;;;5027990;28;20029;-76
2022/06/29 14:29:01;;;;;;;26.67;18.77;;;;;;;;;;5020770;28;20057;-79
2022/06/29 14:31:28;;;;;;;29.10;18.42;;;;;;;;;;5024761;28;20034;-78
2022/06/29 14:33:54;;;;;;;26.52;18.98;;;;;;;;;;5029313;28;20029;-78
2022/06/29 14:36:19;;;;;;;25.00;16.80;;;;;;;;;;5016071;28;20072;-79
2022/06/29 14:38:46;;;;;;;26.55;17.25;;;;;;;;;;5022400;28;20426;-78
2022/06/29 14:41:11;;;;;;;38.05;18.17;;;;;;;;;;5044164;28;20033;-79
2022/06/29 14:43:37;;;;;;;28.30;16.65;;;;;;;;;;5026106;28;20029;-77
2022/06/29 14:46:03;;;;;;;25.40;16.08;;;;;;;;;;5026412;28;20131;-79
2022/06/29 14:48:29;;;;;;;19.15;14.68;;;;;;;;;;5005246;28;20044;-77
2022/06/29 14:50:55;;;;;;;26.83;14.45;;;;;;;;;;5005639;28;20037;-78